sensor_id;sensor_type;location;lat;lon;timestamp;pressure;altitude;pressure_sealevel;temperature;humidity
48386;BME280;34644;47.964;7.982;2023-07-02T00:05:45;96182.91;;;20.83;63.78
48386;BME280;34644;47.964;7.982;2023-07-02T00:12:45;96181.47;;;20.86;64.14
48386;BME280;34644;47.964;7.982;2023-07-02T00:19:45;96177.03;;;20.72;64.32
48386;BME280;34644;47.964;7.982;2023-07-02T00:26:46;96182.44;;;20.81;64.32
48386;BME280;34644;47.964;7.982;2023-07-02T00:33:48;96184.50;;;20.84;64.51
48386;BME280;34644;47.964;7.982;2023-07-02T00:40:48;96178.00;;;20.85;63.78
48386;BME280;34644;47.964;7.982;2023-07-02T00:47:53;96177.41;;;20.88;63.83
48386;BME280;34644;47.964;7.982;2023-07-02T00:54:54;96172.66;;;20.76;64.55
48386;BME280;34644;47.964;7.982;2023-07-02T01:01:55;96184.66;;;20.88;63.82
48386;BME280;34644;47.964;7.982;2023-07-02T01:08:57;96183.84;;;20.87;63.99
48386;BME280;34644;47.964;7.982;2023-07-02T01:15:58;96185.22;;;20.76;64.35
48386;BME280;34644;47.964;7.982;2023-07-02T01:22:58;96182.59;;;20.85;64.04
48386;BME280;34644;47.964;7.982;2023-07-02T01:30:03;96176.63;;;20.88;63.60
48386;BME280;34644;47.964;7.982;2023-07-02T01:37:04;96184.16;;;20.86;63.90
48386;BME280;34644;47.964;7.982;2023-07-02T01:44:05;96189.19;;;20.87;63.84
48386;BME280;34644;47.964;7.982;2023-07-02T01:51:06;96191.41;;;20.85;63.99
48386;BME280;34644;47.964;7.982;2023-07-02T01:58:06;96195.63;;;20.77;64.57
48386;BME280;34644;47.964;7.982;2023-07-02T02:05:08;96196.59;;;20.82;64.15
48386;BME280;34644;47.964;7.982;2023-07-02T02:12:09;96200.38;;;20.81;64.65
48386;BME280;34644;47.964;7.982;2023-07-02T02:19:10;96212.00;;;20.76;64.62
48386;BME280;34644;47.964;7.982;2023-07-02T02:26:10;96212.75;;;20.68;65.07
48386;BME280;34644;47.964;7.982;2023-07-02T02:33:11;96225.63;;;20.34;64.62
48386;BME280;34644;47.964;7.982;2023-07-02T02:40:11;96224.41;;;20.40;64.10
48386;BME280;34644;47.964;7.982;2023-07-02T02:47:13;96224.84;;;20.34;63.85
48386;BME280;34644;47.964;7.982;2023-07-02T02:54:14;96228.97;;;20.17;63.58
48386;BME280;34644;47.964;7.982;2023-07-02T03:01:14;96234.31;;;20.17;62.78
48386;BME280;34644;47.964;7.982;2023-07-02T03:08:15;96239.38;;;20.19;62.76
48386;BME280;34644;47.964;7.982;2023-07-02T03:15:15;96243.25;;;20.13;61.91
48386;BME280;34644;47.964;7.982;2023-07-02T03:22:18;96249.72;;;20.12;61.74
48386;BME280;34644;47.964;7.982;2023-07-02T03:29:18;96256.69;;;19.99;61.67
48386;BME280;34644;47.964;7.982;2023-07-02T03:36:20;96255.59;;;20.00;61.00
48386;BME280;34644;47.964;7.982;2023-07-02T03:43:20;96259.56;;;20.02;61.00
48386;BME280;34644;47.964;7.982;2023-07-02T03:50:21;96256.31;;;19.92;60.36
48386;BME280;34644;47.964;7.982;2023-07-02T03:57:21;96255.84;;;19.90;60.30
48386;BME280;34644;47.964;7.982;2023-07-02T04:04:21;96260.16;;;19.99;59.50
48386;BME280;34644;47.964;7.982;2023-07-02T04:11:22;96272.13;;;20.02;59.50
48386;BME280;34644;47.964;7.982;2023-07-02T04:18:22;96295.84;;;19.81;58.94
48386;BME280;34644;47.964;7.982;2023-07-02T04:25:22;96298.84;;;19.79;58.34
48386;BME280;34644;47.964;7.982;2023-07-02T04:32:23;96293.06;;;19.86;58.20
48386;BME280;34644;47.964;7.982;2023-07-02T04:39:23;96300.59;;;19.84;58.19
48386;BME280;34644;47.964;7.982;2023-07-02T04:46:23;96305.78;;;19.80;58.12
48386;BME280;34644;47.964;7.982;2023-07-02T04:53:24;96309.72;;;19.69;58.14
48386;BME280;34644;47.964;7.982;2023-07-02T05:00:24;96316.84;;;19.74;57.33
48386;BME280;34644;47.964;7.982;2023-07-02T05:07:25;96309.53;;;19.79;57.58
48386;BME280;34644;47.964;7.982;2023-07-02T05:14:25;96320.31;;;19.60;57.01
48386;BME280;34644;47.964;7.982;2023-07-02T05:21:26;96326.66;;;19.64;56.77
48386;BME280;34644;47.964;7.982;2023-07-02T05:28:26;96338.31;;;19.68;57.15
48386;BME280;34644;47.964;7.982;2023-07-02T05:35:29;96342.59;;;19.83;57.41
48386;BME280;34644;47.964;7.982;2023-07-02T05:42:29;96350.50;;;19.75;57.34
48386;BME280;34644;47.964;7.982;2023-07-02T05:49:30;96348.13;;;19.87;57.19
48386;BME280;34644;47.964;7.982;2023-07-02T05:56:30;96358.75;;;19.78;56.80
48386;BME280;34644;47.964;7.982;2023-07-02T06:03:30;96364.16;;;19.73;56.77
48386;BME280;34644;47.964;7.982;2023-07-02T06:10:30;96370.44;;;19.82;57.02
48386;BME280;34644;47.964;7.982;2023-07-02T06:17:31;96374.69;;;19.83;56.73
48386;BME280;34644;47.964;7.982;2023-07-02T06:24:31;96378.34;;;19.87;56.54
48386;BME280;34644;47.964;7.982;2023-07-02T06:31:31;96390.22;;;19.95;56.52
48386;BME280;34644;47.964;7.982;2023-07-02T06:38:31;96390.72;;;19.97;56.51
48386;BME280;34644;47.964;7.982;2023-07-02T06:45:32;96393.47;;;19.50;56.01
48386;BME280;34644;47.964;7.982;2023-07-02T06:52:32;96405.91;;;19.27;55.19
48386;BME280;34644;47.964;7.982;2023-07-02T06:59:33;96402.28;;;19.51;54.78
48386;BME280;34644;47.964;7.982;2023-07-02T07:06:33;96410.09;;;19.47;54.40
48386;BME280;34644;47.964;7.982;2023-07-02T07:13:34;96416.53;;;19.32;54.25
48386;BME280;34644;47.964;7.982;2023-07-02T07:20:35;96419.38;;;19.36;53.89
48386;BME280;34644;47.964;7.982;2023-07-02T07:27:36;96416.81;;;19.45;54.09
48386;BME280;34644;47.964;7.982;2023-07-02T07:34:36;96417.22;;;19.38;54.31
48386;BME280;34644;47.964;7.982;2023-07-02T07:41:36;96408.72;;;19.50;54.15
48386;BME280;34644;47.964;7.982;2023-07-02T07:48:36;96411.28;;;19.41;54.23
48386;BME280;34644;47.964;7.982;2023-07-02T07:55:37;96403.06;;;19.38;54.27
48386;BME280;34644;47.964;7.982;2023-07-02T08:02:37;96404.84;;;19.42;54.11
48386;BME280;34644;47.964;7.982;2023-07-02T08:09:38;96406.13;;;19.45;53.40
48386;BME280;34644;47.964;7.982;2023-07-02T08:16:38;96407.31;;;19.52;53.79
48386;BME280;34644;47.964;7.982;2023-07-02T08:23:38;96404.63;;;19.39;53.91
48386;BME280;34644;47.964;7.982;2023-07-02T08:30:39;96403.56;;;19.53;53.56
48386;BME280;34644;47.964;7.982;2023-07-02T08:37:39;96401.50;;;19.64;53.69
48386;BME280;34644;47.964;7.982;2023-07-02T08:44:39;96413.28;;;19.63;53.47
48386;BME280;34644;47.964;7.982;2023-07-02T08:51:40;96418.81;;;19.67;53.82
48386;BME280;34644;47.964;7.982;2023-07-02T08:58:40;96420.31;;;19.73;53.56
48386;BME280;34644;47.964;7.982;2023-07-02T09:05:53;96415.59;;;19.84;53.08
48386;BME280;34644;47.964;7.982;2023-07-02T09:13:03;96420.44;;;19.82;53.97
48386;BME280;34644;47.964;7.982;2023-07-02T09:20:04;96426.38;;;19.79;53.09
48386;BME280;34644;47.964;7.982;2023-07-02T09:27:07;96421.81;;;19.79;53.04
48386;BME280;34644;47.964;7.982;2023-07-02T09:34:07;96421.63;;;19.90;53.42
48386;BME280;34644;47.964;7.982;2023-07-02T09:41:08;96429.25;;;19.96;52.58
48386;BME280;34644;47.964;7.982;2023-07-02T09:48:08;96414.88;;;20.06;52.70
48386;BME280;34644;47.964;7.982;2023-07-02T09:55:09;96416.06;;;20.00;52.49
48386;BME280;34644;47.964;7.982;2023-07-02T10:02:10;96420.94;;;19.98;52.03
48386;BME280;34644;47.964;7.982;2023-07-02T10:09:10;96422.03;;;19.97;51.92
48386;BME280;34644;47.964;7.982;2023-07-02T10:16:11;96418.31;;;20.20;52.29
48386;BME280;34644;47.964;7.982;2023-07-02T10:23:11;96415.81;;;20.38;52.05
48386;BME280;34644;47.964;7.982;2023-07-02T10:30:12;96420.09;;;20.39;51.25
48386;BME280;34644;47.964;7.982;2023-07-02T10:37:12;96417.78;;;20.46;51.45
48386;BME280;34644;47.964;7.982;2023-07-02T10:44:12;96415.66;;;20.57;52.28
48386;BME280;34644;47.964;7.982;2023-07-02T10:51:13;96417.94;;;20.64;52.38
48386;BME280;34644;47.964;7.982;2023-07-02T10:58:13;96409.59;;;20.65;52.03
48386;BME280;34644;47.964;7.982;2023-07-02T11:05:14;96409.69;;;20.74;52.53
48386;BME280;34644;47.964;7.982;2023-07-02T11:12:15;96412.00;;;20.89;52.60
48386;BME280;34644;47.964;7.982;2023-07-02T11:19:16;96409.97;;;20.95;52.32
48386;BME280;34644;47.964;7.982;2023-07-02T11:26:19;96404.53;;;21.00;51.49
48386;BME280;34644;47.964;7.982;2023-07-02T11:33:20;96402.25;;;20.93;51.59
48386;BME280;34644;47.964;7.982;2023-07-02T11:40:21;96413.09;;;20.88;52.47
48386;BME280;34644;47.964;7.982;2023-07-02T11:47:21;96418.44;;;20.88;52.63
48386;BME280;34644;47.964;7.982;2023-07-02T11:54:21;96410.53;;;20.83;52.96
48386;BME280;34644;47.964;7.982;2023-07-02T12:01:25;96411.50;;;20.87;53.28
48386;BME280;34644;47.964;7.982;2023-07-02T12:08:25;96404.59;;;20.86;53.54
48386;BME280;34644;47.964;7.982;2023-07-02T12:15:26;96410.28;;;20.93;54.34
48386;BME280;34644;47.964;7.982;2023-07-02T12:22:26;96399.09;;;20.91;53.63
48386;BME280;34644;47.964;7.982;2023-07-02T12:29:26;96399.56;;;20.93;53.74
48386;BME280;34644;47.964;7.982;2023-07-02T12:36:27;96398.34;;;21.00;54.42
48386;BME280;34644;47.964;7.982;2023-07-02T12:43:27;96403.72;;;21.00;54.11
48386;BME280;34644;47.964;7.982;2023-07-02T12:50:28;96397.56;;;20.99;54.58
48386;BME280;34644;47.964;7.982;2023-07-02T12:57:28;96395.50;;;20.96;54.63
48386;BME280;34644;47.964;7.982;2023-07-02T13:04:28;96393.81;;;21.00;54.02
48386;BME280;34644;47.964;7.982;2023-07-02T13:11:29;96400.19;;;21.13;54.27
48386;BME280;34644;47.964;7.982;2023-07-02T13:18:29;96391.88;;;21.23;53.21
48386;BME280;34644;47.964;7.982;2023-07-02T13:25:30;96388.19;;;21.10;52.68
48386;BME280;34644;47.964;7.982;2023-07-02T13:32:30;96399.06;;;21.14;52.40
48386;BME280;34644;47.964;7.982;2023-07-02T13:39:30;96400.22;;;21.22;52.04
48386;BME280;34644;47.964;7.982;2023-07-02T13:46:31;96405.66;;;21.39;52.49
48386;BME280;34644;47.964;7.982;2023-07-02T13:53:31;96396.38;;;21.37;52.34
48386;BME280;34644;47.964;7.982;2023-07-02T14:00:32;96394.41;;;21.51;51.27
48386;BME280;34644;47.964;7.982;2023-07-02T14:07:32;96388.53;;;21.49;50.52
48386;BME280;34644;47.964;7.982;2023-07-02T14:14:33;96384.28;;;21.48;49.63
48386;BME280;34644;47.964;7.982;2023-07-02T14:21:33;96379.78;;;21.57;48.64
48386;BME280;34644;47.964;7.982;2023-07-02T14:28:33;96377.25;;;21.61;49.42
48386;BME280;34644;47.964;7.982;2023-07-02T14:35:34;96365.75;;;21.60;47.15
48386;BME280;34644;47.964;7.982;2023-07-02T14:42:35;96365.91;;;21.64;47.54
48386;BME280;34644;47.964;7.982;2023-07-02T14:49:36;96367.50;;;21.74;47.64
48386;BME280;34644;47.964;7.982;2023-07-02T14:56:36;96361.06;;;21.75;47.30
48386;BME280;34644;47.964;7.982;2023-07-02T15:03:37;96361.84;;;21.75;47.74
48386;BME280;34644;47.964;7.982;2023-07-02T15:10:38;96357.75;;;21.78;46.87
48386;BME280;34644;47.964;7.982;2023-07-02T15:17:39;96362.31;;;21.77;46.08
48386;BME280;34644;47.964;7.982;2023-07-02T15:24:39;96358.38;;;21.75;46.20
48386;BME280;34644;47.964;7.982;2023-07-02T15:31:39;96361.53;;;21.77;46.65
48386;BME280;34644;47.964;7.982;2023-07-02T15:38:42;96369.41;;;21.82;45.09
48386;BME280;34644;47.964;7.982;2023-07-02T15:45:42;96364.06;;;21.82;45.99
48386;BME280;34644;47.964;7.982;2023-07-02T15:52:42;96346.09;;;21.82;46.14
48386;BME280;34644;47.964;7.982;2023-07-02T15:59:43;96356.63;;;21.79;46.74
48386;BME280;34644;47.964;7.982;2023-07-02T16:06:43;96350.44;;;21.69;47.71
48386;BME280;34644;47.964;7.982;2023-07-02T16:13:44;96346.88;;;21.83;45.78
48386;BME280;34644;47.964;7.982;2023-07-02T16:20:52;96348.91;;;21.77;46.15
48386;BME280;34644;47.964;7.982;2023-07-02T16:27:53;96352.19;;;21.74;47.19
48386;BME280;34644;47.964;7.982;2023-07-02T16:34:54;96352.38;;;21.78;45.69
48386;BME280;34644;47.964;7.982;2023-07-02T16:41:54;96353.94;;;21.70;45.98
48386;BME280;34644;47.964;7.982;2023-07-02T16:48:54;96353.91;;;21.61;47.96
48386;BME280;34644;47.964;7.982;2023-07-02T16:56:03;96347.13;;;21.64;46.75
48386;BME280;34644;47.964;7.982;2023-07-02T17:03:04;96360.84;;;21.62;46.81
48386;BME280;34644;47.964;7.982;2023-07-02T17:10:04;96355.63;;;21.57;47.64
48386;BME280;34644;47.964;7.982;2023-07-02T17:17:09;96346.00;;;21.56;49.29
48386;BME280;34644;47.964;7.982;2023-07-02T17:24:09;96350.91;;;21.54;49.50
48386;BME280;34644;47.964;7.982;2023-07-02T17:31:10;96363.38;;;21.59;48.25
48386;BME280;34644;47.964;7.982;2023-07-02T17:38:10;96355.13;;;21.55;48.98
48386;BME280;34644;47.964;7.982;2023-07-02T17:45:10;96360.16;;;21.48;47.08
48386;BME280;34644;47.964;7.982;2023-07-02T17:52:12;96363.75;;;21.43;45.48
48386;BME280;34644;47.964;7.982;2023-07-02T17:59:15;96366.75;;;21.42;45.35
48386;BME280;34644;47.964;7.982;2023-07-02T18:06:16;96358.53;;;21.38;44.97
48386;BME280;34644;47.964;7.982;2023-07-02T18:13:16;96357.88;;;21.32;44.33
48386;BME280;34644;47.964;7.982;2023-07-02T18:20:16;96354.72;;;21.30;44.31
48386;BME280;34644;47.964;7.982;2023-07-02T18:27:17;96360.69;;;21.27;44.21
48386;BME280;34644;47.964;7.982;2023-07-02T18:34:17;96356.56;;;21.21;42.99
48386;BME280;34644;47.964;7.982;2023-07-02T18:41:17;96371.84;;;21.21;43.30
48386;BME280;34644;47.964;7.982;2023-07-02T18:48:18;96370.09;;;21.16;43.12
48386;BME280;34644;47.964;7.982;2023-07-02T18:55:20;96365.97;;;21.10;43.02
48386;BME280;34644;47.964;7.982;2023-07-02T19:02:20;96364.03;;;21.02;43.26
48386;BME280;34644;47.964;7.982;2023-07-02T19:09:20;96372.19;;;20.96;43.00
48386;BME280;34644;47.964;7.982;2023-07-02T19:16:21;96376.75;;;20.96;43.72
48386;BME280;34644;47.964;7.982;2023-07-02T19:23:22;96379.38;;;20.87;43.70
48386;BME280;34644;47.964;7.982;2023-07-02T19:30:22;96382.97;;;20.83;42.88
48386;BME280;34644;47.964;7.982;2023-07-02T19:37:22;96381.81;;;20.75;43.53
48386;BME280;34644;47.964;7.982;2023-07-02T19:44:23;96398.28;;;20.68;44.40
48386;BME280;34644;47.964;7.982;2023-07-02T19:51:23;96409.59;;;20.65;43.60
48386;BME280;34644;47.964;7.982;2023-07-02T19:58:23;96410.16;;;20.76;44.87
48386;BME280;34644;47.964;7.982;2023-07-02T20:05:24;96431.97;;;20.83;47.71
48386;BME280;34644;47.964;7.982;2023-07-02T20:12:24;96440.50;;;20.85;49.00
48386;BME280;34644;47.964;7.982;2023-07-02T20:19:28;96443.91;;;20.63;47.64
48386;BME280;34644;47.964;7.982;2023-07-02T20:26:28;96445.88;;;20.71;48.22
48386;BME280;34644;47.964;7.982;2023-07-02T20:33:33;96458.06;;;20.77;48.43
48386;BME280;34644;47.964;7.982;2023-07-02T20:40:34;96460.34;;;20.84;48.66
48386;BME280;34644;47.964;7.982;2023-07-02T20:47:34;96458.28;;;20.81;48.54
48386;BME280;34644;47.964;7.982;2023-07-02T20:54:35;96460.97;;;20.81;48.74
48386;BME280;34644;47.964;7.982;2023-07-02T21:01:36;96470.06;;;20.80;48.20
48386;BME280;34644;47.964;7.982;2023-07-02T21:08:36;96472.28;;;20.78;48.38
48386;BME280;34644;47.964;7.982;2023-07-02T21:15:37;96473.84;;;20.79;48.45
48386;BME280;34644;47.964;7.982;2023-07-02T21:22:37;96472.88;;;20.75;48.16
48386;BME280;34644;47.964;7.982;2023-07-02T21:29:37;96475.72;;;20.78;48.23
48386;BME280;34644;47.964;7.982;2023-07-02T21:36:38;96473.66;;;20.75;48.10
48386;BME280;34644;47.964;7.982;2023-07-02T21:43:39;96469.81;;;20.68;47.93
48386;BME280;34644;47.964;7.982;2023-07-02T21:50:41;96484.78;;;20.69;47.80
48386;BME280;34644;47.964;7.982;2023-07-02T21:57:41;96480.50;;;20.68;48.18
48386;BME280;34644;47.964;7.982;2023-07-02T22:04:41;96476.75;;;20.69;47.71
48386;BME280;34644;47.964;7.982;2023-07-02T22:11:45;96480.03;;;20.66;47.96
48386;BME280;34644;47.964;7.982;2023-07-02T22:18:46;96488.16;;;20.60;47.85
48386;BME280;34644;47.964;7.982;2023-07-02T22:25:46;96485.78;;;20.59;47.87
48386;BME280;34644;47.964;7.982;2023-07-02T22:32:47;96489.06;;;20.56;47.80
48386;BME280;34644;47.964;7.982;2023-07-02T22:39:47;96487.94;;;20.57;47.65
48386;BME280;34644;47.964;7.982;2023-07-02T22:46:47;96502.13;;;20.57;47.86
48386;BME280;34644;47.964;7.982;2023-07-02T22:53:48;96506.13;;;20.18;47.96
48386;BME280;34644;47.964;7.982;2023-07-02T23:00:48;96515.72;;;20.47;47.59
48386;BME280;34644;47.964;7.982;2023-07-02T23:07:48;96509.41;;;20.43;47.70
48386;BME280;34644;47.964;7.982;2023-07-02T23:14:48;96508.19;;;20.49;47.81
48386;BME280;34644;47.964;7.982;2023-07-02T23:21:49;96507.91;;;20.09;48.01
48386;BME280;34644;47.964;7.982;2023-07-02T23:28:49;96498.28;;;20.36;47.43
48386;BME280;34644;47.964;7.982;2023-07-02T23:36:01;96494.72;;;20.27;47.66
48386;BME280;34644;47.964;7.982;2023-07-02T23:43:01;96497.28;;;20.32;47.72
48386;BME280;34644;47.964;7.982;2023-07-02T23:50:01;96501.75;;;20.36;48.08
48386;BME280;34644;47.964;7.982;2023-07-02T23:57:02;96501.56;;;20.33;48.23
